sensor_id;sensor_type;location;lat;lon;timestamp;P1;durP1;ratioP1;P2;durP2;ratioP2
3747;SDS011;1889;50.058;8.688;2022-10-30T00:01:24;11.48;;;7.62;;
3747;SDS011;1889;50.058;8.688;2022-10-30T00:03:53;11.18;;;7.47;;
3747;SDS011;1889;50.058;8.688;2022-10-30T00:06:23;12.28;;;7.72;;
3747;SDS011;1889;50.058;8.688;2022-10-30T00:08:52;11.25;;;8.05;;
3747;SDS011;1889;50.058;8.688;2022-10-30T00:11:21;11.53;;;7.10;;
3747;SDS011;1889;50.058;8.688;2022-10-30T00:13:51;12.05;;;8.38;;
3747;SDS011;1889;50.058;8.688;2022-10-30T00:16:20;11.80;;;8.65;;
3747;SDS011;1889;50.058;8.688;2022-10-30T00:18:49;11.75;;;8.13;;
3747;SDS011;1889;50.058;8.688;2022-10-30T00:21:19;13.62;;;8.28;;
3747;SDS011;1889;50.058;8.688;2022-10-30T00:23:49;8.90;;;6.83;;
3747;SDS011;1889;50.058;8.688;2022-10-30T00:26:20;15.20;;;7.28;;
3747;SDS011;1889;50.058;8.688;2022-10-30T00:28:52;13.03;;;7.75;;
3747;SDS011;1889;50.058;8.688;2022-10-30T00:31:23;11.83;;;8.10;;
3747;SDS011;1889;50.058;8.688;2022-10-30T00:33:53;10.70;;;6.50;;
3747;SDS011;1889;50.058;8.688;2022-10-30T00:36:23;12.73;;;7.65;;
3747;SDS011;1889;50.058;8.688;2022-10-30T00:38:52;14.55;;;8.20;;
3747;SDS011;1889;50.058;8.688;2022-10-30T00:41:22;13.28;;;8.40;;
3747;SDS011;1889;50.058;8.688;2022-10-30T00:43:52;14.73;;;8.38;;
3747;SDS011;1889;50.058;8.688;2022-10-30T00:46:37;12.53;;;7.00;;
3747;SDS011;1889;50.058;8.688;2022-10-30T00:49:09;10.20;;;7.92;;
3747;SDS011;1889;50.058;8.688;2022-10-30T00:51:48;10.35;;;7.85;;
3747;SDS011;1889;50.058;8.688;2022-10-30T00:54:15;15.05;;;7.92;;
3747;SDS011;1889;50.058;8.688;2022-10-30T00:56:47;12.45;;;7.37;;
3747;SDS011;1889;50.058;8.688;2022-10-30T00:59:22;10.10;;;6.87;;
3747;SDS011;1889;50.058;8.688;2022-10-30T01:01:53;11.65;;;7.03;;
3747;SDS011;1889;50.058;8.688;2022-10-30T01:04:22;11.25;;;7.20;;
3747;SDS011;1889;50.058;8.688;2022-10-30T01:06:52;11.50;;;7.08;;
3747;SDS011;1889;50.058;8.688;2022-10-30T01:09:22;10.25;;;6.10;;
3747;SDS011;1889;50.058;8.688;2022-10-30T01:11:51;14.07;;;6.80;;
3747;SDS011;1889;50.058;8.688;2022-10-30T01:14:22;11.83;;;7.42;;
3747;SDS011;1889;50.058;8.688;2022-10-30T01:19:36;9.98;;;6.60;;
3747;SDS011;1889;50.058;8.688;2022-10-30T01:22:21;9.78;;;6.87;;
3747;SDS011;1889;50.058;8.688;2022-10-30T01:24:57;14.98;;;8.63;;
3747;SDS011;1889;50.058;8.688;2022-10-30T01:27:37;38.90;;;18.45;;
3747;SDS011;1889;50.058;8.688;2022-10-30T01:30:50;32.28;;;14.58;;
3747;SDS011;1889;50.058;8.688;2022-10-30T01:34:29;16.42;;;10.53;;
3747;SDS011;1889;50.058;8.688;2022-10-30T01:38:53;9.77;;;7.37;;
3747;SDS011;1889;50.058;8.688;2022-10-30T01:41:24;10.68;;;6.75;;
3747;SDS011;1889;50.058;8.688;2022-10-30T01:43:57;9.55;;;6.50;;
3747;SDS011;1889;50.058;8.688;2022-10-30T01:55:41;9.93;;;7.17;;
3747;SDS011;1889;50.058;8.688;2022-10-30T01:58:29;11.40;;;7.10;;
3747;SDS011;1889;50.058;8.688;2022-10-30T02:01:17;12.30;;;6.67;;
3747;SDS011;1889;50.058;8.688;2022-10-30T02:03:48;12.82;;;7.10;;
3747;SDS011;1889;50.058;8.688;2022-10-30T02:06:17;14.15;;;6.75;;
3747;SDS011;1889;50.058;8.688;2022-10-30T02:08:53;13.50;;;7.60;;
3747;SDS011;1889;50.058;8.688;2022-10-30T02:11:17;11.20;;;6.22;;
3747;SDS011;1889;50.058;8.688;2022-10-30T02:13:48;10.88;;;6.50;;
3747;SDS011;1889;50.058;8.688;2022-10-30T02:16:19;9.00;;;6.72;;
3747;SDS011;1889;50.058;8.688;2022-10-30T02:18:49;10.25;;;7.10;;
3747;SDS011;1889;50.058;8.688;2022-10-30T02:21:19;9.13;;;6.67;;
3747;SDS011;1889;50.058;8.688;2022-10-30T02:23:48;14.38;;;6.67;;
3747;SDS011;1889;50.058;8.688;2022-10-30T02:26:18;11.80;;;6.60;;
3747;SDS011;1889;50.058;8.688;2022-10-30T02:28:47;10.28;;;6.42;;
3747;SDS011;1889;50.058;8.688;2022-10-30T02:31:16;9.53;;;6.30;;
3747;SDS011;1889;50.058;8.688;2022-10-30T02:33:46;10.72;;;5.83;;
3747;SDS011;1889;50.058;8.688;2022-10-30T02:36:16;9.03;;;6.65;;
3747;SDS011;1889;50.058;8.688;2022-10-30T02:38:46;7.70;;;5.95;;
3747;SDS011;1889;50.058;8.688;2022-10-30T02:41:15;12.95;;;7.20;;
3747;SDS011;1889;50.058;8.688;2022-10-30T02:43:44;9.05;;;7.00;;
3747;SDS011;1889;50.058;8.688;2022-10-30T02:46:13;8.58;;;6.90;;
3747;SDS011;1889;50.058;8.688;2022-10-30T02:48:43;10.72;;;6.67;;
3747;SDS011;1889;50.058;8.688;2022-10-30T02:51:12;10.93;;;6.55;;
3747;SDS011;1889;50.058;8.688;2022-10-30T02:53:41;9.40;;;7.30;;
3747;SDS011;1889;50.058;8.688;2022-10-30T02:56:11;11.95;;;7.00;;
3747;SDS011;1889;50.058;8.688;2022-10-30T02:58:41;9.45;;;6.75;;
3747;SDS011;1889;50.058;8.688;2022-10-30T03:01:11;8.43;;;6.80;;
3747;SDS011;1889;50.058;8.688;2022-10-30T03:03:42;10.58;;;7.15;;
3747;SDS011;1889;50.058;8.688;2022-10-30T03:06:14;10.18;;;6.40;;
3747;SDS011;1889;50.058;8.688;2022-10-30T03:08:44;12.58;;;7.10;;
3747;SDS011;1889;50.058;8.688;2022-10-30T03:11:14;9.28;;;6.60;;
3747;SDS011;1889;50.058;8.688;2022-10-30T03:13:45;8.55;;;6.67;;
3747;SDS011;1889;50.058;8.688;2022-10-30T03:16:16;9.23;;;6.10;;
3747;SDS011;1889;50.058;8.688;2022-10-30T03:18:47;9.43;;;7.27;;
3747;SDS011;1889;50.058;8.688;2022-10-30T03:21:18;10.88;;;6.90;;
3747;SDS011;1889;50.058;8.688;2022-10-30T03:23:48;9.40;;;6.33;;
3747;SDS011;1889;50.058;8.688;2022-10-30T03:26:19;11.28;;;6.60;;
3747;SDS011;1889;50.058;8.688;2022-10-30T03:28:48;12.03;;;7.30;;
3747;SDS011;1889;50.058;8.688;2022-10-30T03:31:18;8.53;;;6.53;;
3747;SDS011;1889;50.058;8.688;2022-10-30T03:33:47;11.53;;;6.95;;
3747;SDS011;1889;50.058;8.688;2022-10-30T03:36:17;11.75;;;7.12;;
3747;SDS011;1889;50.058;8.688;2022-10-30T03:38:46;10.68;;;6.42;;
3747;SDS011;1889;50.058;8.688;2022-10-30T03:41:15;9.65;;;6.35;;
3747;SDS011;1889;50.058;8.688;2022-10-30T03:43:45;10.20;;;6.65;;
3747;SDS011;1889;50.058;8.688;2022-10-30T03:46:14;11.55;;;6.70;;
3747;SDS011;1889;50.058;8.688;2022-10-30T03:48:47;10.85;;;6.45;;
3747;SDS011;1889;50.058;8.688;2022-10-30T03:51:17;7.50;;;5.70;;
3747;SDS011;1889;50.058;8.688;2022-10-30T03:53:46;13.55;;;7.05;;
3747;SDS011;1889;50.058;8.688;2022-10-30T03:56:16;12.30;;;6.83;;
3747;SDS011;1889;50.058;8.688;2022-10-30T03:58:46;13.75;;;6.53;;
3747;SDS011;1889;50.058;8.688;2022-10-30T04:01:15;10.13;;;6.15;;
3747;SDS011;1889;50.058;8.688;2022-10-30T04:03:45;7.58;;;5.60;;
3747;SDS011;1889;50.058;8.688;2022-10-30T04:06:14;9.50;;;6.42;;
3747;SDS011;1889;50.058;8.688;2022-10-30T04:08:43;7.62;;;5.45;;
3747;SDS011;1889;50.058;8.688;2022-10-30T04:11:13;10.55;;;6.53;;
3747;SDS011;1889;50.058;8.688;2022-10-30T04:13:42;11.90;;;5.70;;
3747;SDS011;1889;50.058;8.688;2022-10-30T04:16:11;10.05;;;6.28;;
3747;SDS011;1889;50.058;8.688;2022-10-30T04:18:40;8.83;;;5.97;;
3747;SDS011;1889;50.058;8.688;2022-10-30T04:21:10;9.00;;;6.17;;
3747;SDS011;1889;50.058;8.688;2022-10-30T04:23:39;7.97;;;5.92;;
3747;SDS011;1889;50.058;8.688;2022-10-30T04:26:08;7.78;;;6.22;;
3747;SDS011;1889;50.058;8.688;2022-10-30T04:28:38;9.03;;;6.10;;
3747;SDS011;1889;50.058;8.688;2022-10-30T04:31:07;9.00;;;5.75;;
3747;SDS011;1889;50.058;8.688;2022-10-30T04:33:36;8.20;;;5.75;;
3747;SDS011;1889;50.058;8.688;2022-10-30T04:36:06;11.00;;;6.37;;
3747;SDS011;1889;50.058;8.688;2022-10-30T04:38:35;12.05;;;6.12;;
3747;SDS011;1889;50.058;8.688;2022-10-30T04:41:05;9.43;;;5.80;;
3747;SDS011;1889;50.058;8.688;2022-10-30T04:43:35;9.18;;;6.03;;
3747;SDS011;1889;50.058;8.688;2022-10-30T04:46:04;8.73;;;5.92;;
3747;SDS011;1889;50.058;8.688;2022-10-30T04:48:33;14.87;;;6.17;;
3747;SDS011;1889;50.058;8.688;2022-10-30T04:51:03;9.88;;;6.05;;
3747;SDS011;1889;50.058;8.688;2022-10-30T04:53:32;7.47;;;5.78;;
3747;SDS011;1889;50.058;8.688;2022-10-30T04:56:02;12.25;;;6.20;;
3747;SDS011;1889;50.058;8.688;2022-10-30T04:58:32;7.42;;;5.55;;
3747;SDS011;1889;50.058;8.688;2022-10-30T05:01:02;10.58;;;6.00;;
3747;SDS011;1889;50.058;8.688;2022-10-30T05:03:32;10.00;;;6.10;;
3747;SDS011;1889;50.058;8.688;2022-10-30T05:06:05;6.83;;;5.40;;
3747;SDS011;1889;50.058;8.688;2022-10-30T05:08:37;7.53;;;5.83;;
3747;SDS011;1889;50.058;8.688;2022-10-30T05:11:06;8.10;;;5.53;;
3747;SDS011;1889;50.058;8.688;2022-10-30T05:13:35;10.28;;;5.95;;
3747;SDS011;1889;50.058;8.688;2022-10-30T05:16:05;9.05;;;5.67;;
3747;SDS011;1889;50.058;8.688;2022-10-30T05:18:34;17.52;;;6.92;;
3747;SDS011;1889;50.058;8.688;2022-10-30T05:21:04;9.60;;;5.95;;
3747;SDS011;1889;50.058;8.688;2022-10-30T05:23:33;8.33;;;5.97;;
3747;SDS011;1889;50.058;8.688;2022-10-30T05:26:03;9.30;;;6.20;;
3747;SDS011;1889;50.058;8.688;2022-10-30T05:28:32;12.73;;;6.53;;
3747;SDS011;1889;50.058;8.688;2022-10-30T05:31:01;10.15;;;5.85;;
3747;SDS011;1889;50.058;8.688;2022-10-30T05:33:31;8.98;;;5.40;;
3747;SDS011;1889;50.058;8.688;2022-10-30T05:36:00;10.45;;;6.37;;
3747;SDS011;1889;50.058;8.688;2022-10-30T05:38:29;9.48;;;5.67;;
3747;SDS011;1889;50.058;8.688;2022-10-30T05:40:59;9.13;;;6.58;;
3747;SDS011;1889;50.058;8.688;2022-10-30T05:43:28;7.53;;;5.90;;
3747;SDS011;1889;50.058;8.688;2022-10-30T05:45:57;11.25;;;5.97;;
3747;SDS011;1889;50.058;8.688;2022-10-30T05:48:26;7.40;;;5.50;;
3747;SDS011;1889;50.058;8.688;2022-10-30T05:50:56;10.88;;;5.37;;
3747;SDS011;1889;50.058;8.688;2022-10-30T05:53:25;7.95;;;6.00;;
3747;SDS011;1889;50.058;8.688;2022-10-30T05:55:55;8.48;;;5.60;;
3747;SDS011;1889;50.058;8.688;2022-10-30T05:58:25;10.68;;;5.97;;
3747;SDS011;1889;50.058;8.688;2022-10-30T06:00:55;6.53;;;5.65;;
3747;SDS011;1889;50.058;8.688;2022-10-30T06:03:24;8.90;;;5.87;;
3747;SDS011;1889;50.058;8.688;2022-10-30T06:05:53;7.08;;;5.40;;
3747;SDS011;1889;50.058;8.688;2022-10-30T06:08:22;7.35;;;5.90;;
3747;SDS011;1889;50.058;8.688;2022-10-30T06:10:52;8.30;;;5.87;;
3747;SDS011;1889;50.058;8.688;2022-10-30T06:13:23;8.28;;;5.42;;
3747;SDS011;1889;50.058;8.688;2022-10-30T06:16:13;10.88;;;5.20;;
3747;SDS011;1889;50.058;8.688;2022-10-30T06:18:43;7.75;;;4.95;;
3747;SDS011;1889;50.058;8.688;2022-10-30T06:21:12;10.72;;;6.10;;
3747;SDS011;1889;50.058;8.688;2022-10-30T06:23:41;7.45;;;4.75;;
3747;SDS011;1889;50.058;8.688;2022-10-30T06:26:11;8.65;;;5.08;;
3747;SDS011;1889;50.058;8.688;2022-10-30T06:28:40;11.65;;;5.58;;
3747;SDS011;1889;50.058;8.688;2022-10-30T06:31:09;6.37;;;5.15;;
3747;SDS011;1889;50.058;8.688;2022-10-30T06:33:39;6.08;;;5.03;;
3747;SDS011;1889;50.058;8.688;2022-10-30T06:36:08;8.13;;;5.70;;
3747;SDS011;1889;50.058;8.688;2022-10-30T06:38:37;6.87;;;5.85;;
3747;SDS011;1889;50.058;8.688;2022-10-30T06:41:07;6.45;;;5.40;;
3747;SDS011;1889;50.058;8.688;2022-10-30T06:43:36;6.67;;;4.92;;
3747;SDS011;1889;50.058;8.688;2022-10-30T06:46:05;9.78;;;6.17;;
3747;SDS011;1889;50.058;8.688;2022-10-30T06:48:35;6.45;;;4.85;;
3747;SDS011;1889;50.058;8.688;2022-10-30T06:51:04;7.22;;;5.37;;
3747;SDS011;1889;50.058;8.688;2022-10-30T06:53:34;8.00;;;4.47;;
3747;SDS011;1889;50.058;8.688;2022-10-30T06:56:03;9.18;;;5.40;;
3747;SDS011;1889;50.058;8.688;2022-10-30T06:58:32;7.58;;;5.10;;
3747;SDS011;1889;50.058;8.688;2022-10-30T07:01:05;9.55;;;4.80;;
3747;SDS011;1889;50.058;8.688;2022-10-30T07:03:34;10.28;;;4.95;;
3747;SDS011;1889;50.058;8.688;2022-10-30T07:06:04;7.47;;;5.08;;
3747;SDS011;1889;50.058;8.688;2022-10-30T07:08:33;6.70;;;4.67;;
3747;SDS011;1889;50.058;8.688;2022-10-30T07:11:02;9.43;;;5.35;;
3747;SDS011;1889;50.058;8.688;2022-10-30T07:13:32;7.03;;;5.28;;
3747;SDS011;1889;50.058;8.688;2022-10-30T07:16:01;7.58;;;5.03;;
3747;SDS011;1889;50.058;8.688;2022-10-30T07:18:31;8.28;;;5.83;;
3747;SDS011;1889;50.058;8.688;2022-10-30T07:21:00;8.95;;;5.92;;
3747;SDS011;1889;50.058;8.688;2022-10-30T07:23:29;8.50;;;5.22;;
3747;SDS011;1889;50.058;8.688;2022-10-30T07:25:59;8.58;;;5.85;;
3747;SDS011;1889;50.058;8.688;2022-10-30T07:28:28;9.10;;;6.47;;
3747;SDS011;1889;50.058;8.688;2022-10-30T07:30:58;8.43;;;6.20;;
3747;SDS011;1889;50.058;8.688;2022-10-30T07:33:27;9.08;;;5.72;;
3747;SDS011;1889;50.058;8.688;2022-10-30T07:35:58;10.08;;;5.85;;
3747;SDS011;1889;50.058;8.688;2022-10-30T07:38:28;9.85;;;5.90;;
3747;SDS011;1889;50.058;8.688;2022-10-30T07:40:57;5.85;;;5.12;;
3747;SDS011;1889;50.058;8.688;2022-10-30T07:43:27;9.23;;;5.25;;
3747;SDS011;1889;50.058;8.688;2022-10-30T07:45:56;8.70;;;6.03;;
3747;SDS011;1889;50.058;8.688;2022-10-30T07:48:25;6.75;;;6.00;;
3747;SDS011;1889;50.058;8.688;2022-10-30T07:50:55;7.75;;;4.85;;
3747;SDS011;1889;50.058;8.688;2022-10-30T07:53:24;8.98;;;5.67;;
3747;SDS011;1889;50.058;8.688;2022-10-30T07:55:53;10.13;;;5.22;;
3747;SDS011;1889;50.058;8.688;2022-10-30T07:58:25;8.38;;;6.35;;
3747;SDS011;1889;50.058;8.688;2022-10-30T08:00:54;6.28;;;5.30;;
3747;SDS011;1889;50.058;8.688;2022-10-30T08:03:24;8.30;;;6.08;;
3747;SDS011;1889;50.058;8.688;2022-10-30T08:05:53;11.50;;;5.87;;
3747;SDS011;1889;50.058;8.688;2022-10-30T08:08:22;7.45;;;5.72;;
3747;SDS011;1889;50.058;8.688;2022-10-30T08:10:51;9.85;;;5.97;;
3747;SDS011;1889;50.058;8.688;2022-10-30T08:13:21;8.60;;;5.67;;
3747;SDS011;1889;50.058;8.688;2022-10-30T08:15:50;9.03;;;5.37;;
3747;SDS011;1889;50.058;8.688;2022-10-30T08:18:19;9.03;;;5.87;;
3747;SDS011;1889;50.058;8.688;2022-10-30T08:20:49;6.12;;;4.87;;
3747;SDS011;1889;50.058;8.688;2022-10-30T08:23:18;8.23;;;5.80;;
3747;SDS011;1889;50.058;8.688;2022-10-30T08:25:48;13.48;;;6.50;;
3747;SDS011;1889;50.058;8.688;2022-10-30T08:28:17;10.65;;;6.28;;
3747;SDS011;1889;50.058;8.688;2022-10-30T08:30:46;8.15;;;5.85;;
3747;SDS011;1889;50.058;8.688;2022-10-30T08:33:16;7.20;;;5.95;;
3747;SDS011;1889;50.058;8.688;2022-10-30T08:35:47;8.98;;;6.45;;
3747;SDS011;1889;50.058;8.688;2022-10-30T08:38:18;10.15;;;5.83;;
3747;SDS011;1889;50.058;8.688;2022-10-30T08:40:47;13.53;;;6.42;;
3747;SDS011;1889;50.058;8.688;2022-10-30T08:43:16;8.18;;;5.47;;
3747;SDS011;1889;50.058;8.688;2022-10-30T08:45:47;17.98;;;5.55;;
3747;SDS011;1889;50.058;8.688;2022-10-30T08:48:16;6.97;;;5.05;;
3747;SDS011;1889;50.058;8.688;2022-10-30T08:50:45;7.30;;;5.95;;
3747;SDS011;1889;50.058;8.688;2022-10-30T08:53:14;10.87;;;6.00;;
3747;SDS011;1889;50.058;8.688;2022-10-30T08:55:44;8.58;;;5.22;;
3747;SDS011;1889;50.058;8.688;2022-10-30T08:58:13;7.90;;;5.37;;
3747;SDS011;1889;50.058;8.688;2022-10-30T09:00:42;6.53;;;5.55;;
3747;SDS011;1889;50.058;8.688;2022-10-30T09:03:12;10.63;;;6.10;;
3747;SDS011;1889;50.058;8.688;2022-10-30T09:05:41;10.18;;;6.53;;
3747;SDS011;1889;50.058;8.688;2022-10-30T09:08:10;10.82;;;7.28;;
3747;SDS011;1889;50.058;8.688;2022-10-30T09:10:40;8.55;;;6.85;;
3747;SDS011;1889;50.058;8.688;2022-10-30T09:13:09;8.98;;;6.83;;
3747;SDS011;1889;50.058;8.688;2022-10-30T09:15:38;10.37;;;6.83;;
3747;SDS011;1889;50.058;8.688;2022-10-30T09:18:08;11.90;;;7.40;;
3747;SDS011;1889;50.058;8.688;2022-10-30T09:20:37;12.65;;;7.85;;
3747;SDS011;1889;50.058;8.688;2022-10-30T09:23:06;10.50;;;8.58;;
3747;SDS011;1889;50.058;8.688;2022-10-30T09:25:36;10.40;;;7.67;;
3747;SDS011;1889;50.058;8.688;2022-10-30T09:28:05;9.13;;;7.60;;
3747;SDS011;1889;50.058;8.688;2022-10-30T09:30:34;11.80;;;7.67;;
3747;SDS011;1889;50.058;8.688;2022-10-30T09:33:03;13.48;;;7.85;;
3747;SDS011;1889;50.058;8.688;2022-10-30T09:35:33;17.17;;;9.45;;
3747;SDS011;1889;50.058;8.688;2022-10-30T09:38:03;8.68;;;6.83;;
3747;SDS011;1889;50.058;8.688;2022-10-30T09:40:41;14.55;;;8.33;;
3747;SDS011;1889;50.058;8.688;2022-10-30T09:43:34;15.03;;;7.70;;
3747;SDS011;1889;50.058;8.688;2022-10-30T09:46:26;11.90;;;7.08;;
3747;SDS011;1889;50.058;8.688;2022-10-30T09:57:17;9.18;;;6.75;;
3747;SDS011;1889;50.058;8.688;2022-10-30T10:02:37;8.83;;;6.30;;
3747;SDS011;1889;50.058;8.688;2022-10-30T10:08:17;12.47;;;7.17;;
3747;SDS011;1889;50.058;8.688;2022-10-30T10:10:51;13.20;;;5.63;;
3747;SDS011;1889;50.058;8.688;2022-10-30T10:13:27;13.50;;;6.03;;
3747;SDS011;1889;50.058;8.688;2022-10-30T10:16:19;12.68;;;6.50;;
3747;SDS011;1889;50.058;8.688;2022-10-30T10:18:57;9.55;;;5.45;;
3747;SDS011;1889;50.058;8.688;2022-10-30T10:21:48;9.03;;;6.03;;
3747;SDS011;1889;50.058;8.688;2022-10-30T10:24:22;7.42;;;5.35;;
3747;SDS011;1889;50.058;8.688;2022-10-30T10:27:17;12.53;;;5.60;;
3747;SDS011;1889;50.058;8.688;2022-10-30T10:38:08;10.08;;;5.35;;
3747;SDS011;1889;50.058;8.688;2022-10-30T10:40:45;7.08;;;4.58;;
3747;SDS011;1889;50.058;8.688;2022-10-30T10:54:38;9.83;;;4.70;;
3747;SDS011;1889;50.058;8.688;2022-10-30T10:57:09;11.43;;;4.05;;
3747;SDS011;1889;50.058;8.688;2022-10-30T10:59:43;8.43;;;4.17;;
3747;SDS011;1889;50.058;8.688;2022-10-30T11:02:23;7.40;;;4.40;;
3747;SDS011;1889;50.058;8.688;2022-10-30T11:04:59;8.48;;;4.28;;
3747;SDS011;1889;50.058;8.688;2022-10-30T11:07:36;6.30;;;3.67;;
3747;SDS011;1889;50.058;8.688;2022-10-30T11:10:05;7.90;;;4.60;;
3747;SDS011;1889;50.058;8.688;2022-10-30T11:12:37;5.37;;;4.27;;
3747;SDS011;1889;50.058;8.688;2022-10-30T11:18:04;7.67;;;4.00;;
3747;SDS011;1889;50.058;8.688;2022-10-30T11:20:41;8.37;;;4.10;;
3747;SDS011;1889;50.058;8.688;2022-10-30T11:24:05;6.10;;;3.83;;
3747;SDS011;1889;50.058;8.688;2022-10-30T11:26:00;4.25;;;3.50;;
3747;SDS011;1889;50.058;8.688;2022-10-30T11:28:33;7.23;;;4.30;;
3747;SDS011;1889;50.058;8.688;2022-10-30T11:31:15;6.13;;;3.93;;
3747;SDS011;1889;50.058;8.688;2022-10-30T11:33:37;8.47;;;4.10;;
3747;SDS011;1889;50.058;8.688;2022-10-30T11:36:12;10.43;;;3.72;;
3747;SDS011;1889;50.058;8.688;2022-10-30T11:38:37;4.33;;;3.73;;
3747;SDS011;1889;50.058;8.688;2022-10-30T11:41:06;4.07;;;3.27;;
3747;SDS011;1889;50.058;8.688;2022-10-30T11:43:39;4.40;;;2.83;;
3747;SDS011;1889;50.058;8.688;2022-10-30T11:46:10;5.43;;;3.57;;
3747;SDS011;1889;50.058;8.688;2022-10-30T11:48:47;4.83;;;3.20;;
3747;SDS011;1889;50.058;8.688;2022-10-30T11:51:12;7.77;;;3.63;;
3747;SDS011;1889;50.058;8.688;2022-10-30T11:53:42;4.60;;;2.97;;
3747;SDS011;1889;50.058;8.688;2022-10-30T11:56:19;9.67;;;3.37;;
3747;SDS011;1889;50.058;8.688;2022-10-30T11:58:57;4.73;;;3.10;;
3747;SDS011;1889;50.058;8.688;2022-10-30T12:01:29;6.73;;;3.30;;
3747;SDS011;1889;50.058;8.688;2022-10-30T12:04:22;4.83;;;3.50;;
3747;SDS011;1889;50.058;8.688;2022-10-30T12:06:44;7.83;;;3.33;;
3747;SDS011;1889;50.058;8.688;2022-10-30T12:09:20;7.37;;;3.87;;
3747;SDS011;1889;50.058;8.688;2022-10-30T12:11:50;4.57;;;3.13;;
3747;SDS011;1889;50.058;8.688;2022-10-30T12:14:25;5.13;;;2.73;;
3747;SDS011;1889;50.058;8.688;2022-10-30T12:16:52;4.93;;;3.30;;
3747;SDS011;1889;50.058;8.688;2022-10-30T12:19:23;6.00;;;3.30;;
3747;SDS011;1889;50.058;8.688;2022-10-30T12:21:53;6.27;;;3.30;;
3747;SDS011;1889;50.058;8.688;2022-10-30T12:24:35;9.43;;;3.40;;
3747;SDS011;1889;50.058;8.688;2022-10-30T12:27:05;7.03;;;3.27;;
3747;SDS011;1889;50.058;8.688;2022-10-30T12:29:41;8.47;;;4.40;;
3747;SDS011;1889;50.058;8.688;2022-10-30T12:32:31;6.13;;;3.53;;
3747;SDS011;1889;50.058;8.688;2022-10-30T12:35:03;6.70;;;3.37;;
3747;SDS011;1889;50.058;8.688;2022-10-30T12:37:40;5.97;;;3.43;;
3747;SDS011;1889;50.058;8.688;2022-10-30T12:40:12;6.57;;;3.63;;
3747;SDS011;1889;50.058;8.688;2022-10-30T12:42:54;4.60;;;3.23;;
3747;SDS011;1889;50.058;8.688;2022-10-30T12:45:26;6.07;;;3.43;;
3747;SDS011;1889;50.058;8.688;2022-10-30T12:48:14;4.00;;;3.30;;
3747;SDS011;1889;50.058;8.688;2022-10-30T12:50:39;6.40;;;3.57;;
3747;SDS011;1889;50.058;8.688;2022-10-30T12:53:17;3.77;;;2.90;;
3747;SDS011;1889;50.058;8.688;2022-10-30T12:55:44;5.03;;;2.97;;
3747;SDS011;1889;50.058;8.688;2022-10-30T13:01:15;4.60;;;3.30;;
3747;SDS011;1889;50.058;8.688;2022-10-30T13:03:49;5.37;;;3.23;;
3747;SDS011;1889;50.058;8.688;2022-10-30T13:06:25;5.90;;;3.35;;
3747;SDS011;1889;50.058;8.688;2022-10-30T13:14:36;5.03;;;3.10;;
3747;SDS011;1889;50.058;8.688;2022-10-30T13:17:08;4.17;;;2.83;;
3747;SDS011;1889;50.058;8.688;2022-10-30T13:19:39;4.13;;;3.07;;
3747;SDS011;1889;50.058;8.688;2022-10-30T13:22:17;6.63;;;3.70;;
3747;SDS011;1889;50.058;8.688;2022-10-30T13:24:59;4.23;;;2.70;;
3747;SDS011;1889;50.058;8.688;2022-10-30T13:30:29;7.97;;;3.90;;
3747;SDS011;1889;50.058;8.688;2022-10-30T13:33:05;4.17;;;2.73;;
3747;SDS011;1889;50.058;8.688;2022-10-30T13:35:40;5.00;;;3.27;;
3747;SDS011;1889;50.058;8.688;2022-10-30T13:40:57;5.73;;;3.10;;
3747;SDS011;1889;50.058;8.688;2022-10-30T13:46:26;3.90;;;3.10;;
3747;SDS011;1889;50.058;8.688;2022-10-30T13:51:40;4.77;;;3.40;;
3747;SDS011;1889;50.058;8.688;2022-10-30T13:54:36;5.40;;;3.40;;
3747;SDS011;1889;50.058;8.688;2022-10-30T13:57:34;3.70;;;3.00;;
3747;SDS011;1889;50.058;8.688;2022-10-30T14:02:54;4.33;;;3.23;;
3747;SDS011;1889;50.058;8.688;2022-10-30T14:05:38;6.27;;;3.67;;
3747;SDS011;1889;50.058;8.688;2022-10-30T14:11:17;3.83;;;3.30;;
3747;SDS011;1889;50.058;8.688;2022-10-30T14:13:53;5.27;;;3.50;;
3747;SDS011;1889;50.058;8.688;2022-10-30T14:16:43;7.43;;;3.67;;
3747;SDS011;1889;50.058;8.688;2022-10-30T14:19:16;15.07;;;3.53;;
3747;SDS011;1889;50.058;8.688;2022-10-30T14:21:55;5.83;;;3.57;;
3747;SDS011;1889;50.058;8.688;2022-10-30T14:24:26;9.10;;;4.00;;
3747;SDS011;1889;50.058;8.688;2022-10-30T14:39:55;6.37;;;3.70;;
3747;SDS011;1889;50.058;8.688;2022-10-30T14:42:39;5.83;;;3.83;;
3747;SDS011;1889;50.058;8.688;2022-10-30T14:45:22;4.07;;;3.27;;
3747;SDS011;1889;50.058;8.688;2022-10-30T14:50:58;7.60;;;3.80;;
3747;SDS011;1889;50.058;8.688;2022-10-30T14:53:51;4.73;;;3.43;;
3747;SDS011;1889;50.058;8.688;2022-10-30T14:56:26;4.63;;;3.27;;
3747;SDS011;1889;50.058;8.688;2022-10-30T14:59:49;3.97;;;3.30;;
3747;SDS011;1889;50.058;8.688;2022-10-30T15:07:37;4.73;;;3.43;;
3747;SDS011;1889;50.058;8.688;2022-10-30T15:10:33;9.27;;;4.23;;
3747;SDS011;1889;50.058;8.688;2022-10-30T15:13:12;4.67;;;3.77;;
3747;SDS011;1889;50.058;8.688;2022-10-30T15:15:41;7.43;;;3.80;;
3747;SDS011;1889;50.058;8.688;2022-10-30T15:18:18;8.43;;;3.60;;
3747;SDS011;1889;50.058;8.688;2022-10-30T15:20:48;5.73;;;3.37;;
3747;SDS011;1889;50.058;8.688;2022-10-30T15:25:54;4.83;;;3.80;;
3747;SDS011;1889;50.058;8.688;2022-10-30T15:28:30;5.97;;;3.60;;
3747;SDS011;1889;50.058;8.688;2022-10-30T15:33:49;5.80;;;3.70;;
3747;SDS011;1889;50.058;8.688;2022-10-30T15:36:21;6.37;;;3.67;;
3747;SDS011;1889;50.058;8.688;2022-10-30T15:39:17;9.17;;;4.43;;
3747;SDS011;1889;50.058;8.688;2022-10-30T15:42:01;7.37;;;3.75;;
3747;SDS011;1889;50.058;8.688;2022-10-30T15:44:18;6.40;;;4.00;;
3747;SDS011;1889;50.058;8.688;2022-10-30T15:46:53;7.73;;;4.40;;
3747;SDS011;1889;50.058;8.688;2022-10-30T15:49:28;6.03;;;3.87;;
3747;SDS011;1889;50.058;8.688;2022-10-30T15:52:17;5.93;;;3.73;;
3747;SDS011;1889;50.058;8.688;2022-10-30T15:54:52;9.80;;;4.05;;
3747;SDS011;1889;50.058;8.688;2022-10-30T15:57:33;9.83;;;3.83;;
3747;SDS011;1889;50.058;8.688;2022-10-30T16:00:04;8.87;;;4.40;;
3747;SDS011;1889;50.058;8.688;2022-10-30T16:02:37;8.17;;;4.00;;
3747;SDS011;1889;50.058;8.688;2022-10-30T16:05:19;7.20;;;4.27;;
3747;SDS011;1889;50.058;8.688;2022-10-30T16:07:49;6.07;;;4.17;;
3747;SDS011;1889;50.058;8.688;2022-10-30T16:10:19;6.90;;;4.43;;
3747;SDS011;1889;50.058;8.688;2022-10-30T16:12:51;10.75;;;4.33;;
3747;SDS011;1889;50.058;8.688;2022-10-30T16:18:12;6.65;;;4.22;;
3747;SDS011;1889;50.058;8.688;2022-10-30T16:20:40;5.42;;;4.72;;
3747;SDS011;1889;50.058;8.688;2022-10-30T16:23:12;9.23;;;4.50;;
3747;SDS011;1889;50.058;8.688;2022-10-30T16:25:42;9.60;;;4.65;;
3747;SDS011;1889;50.058;8.688;2022-10-30T16:28:21;9.80;;;5.97;;
3747;SDS011;1889;50.058;8.688;2022-10-30T16:30:52;10.23;;;5.47;;
3747;SDS011;1889;50.058;8.688;2022-10-30T16:33:24;7.27;;;4.90;;
3747;SDS011;1889;50.058;8.688;2022-10-30T16:35:55;6.92;;;4.33;;
3747;SDS011;1889;50.058;8.688;2022-10-30T16:38:25;6.40;;;3.77;;
3747;SDS011;1889;50.058;8.688;2022-10-30T16:40:57;10.17;;;6.67;;
3747;SDS011;1889;50.058;8.688;2022-10-30T16:43:27;8.65;;;5.15;;
3747;SDS011;1889;50.058;8.688;2022-10-30T16:48:47;7.00;;;4.13;;
3747;SDS011;1889;50.058;8.688;2022-10-30T16:51:18;8.85;;;5.50;;
3747;SDS011;1889;50.058;8.688;2022-10-30T16:53:49;6.37;;;5.42;;
3747;SDS011;1889;50.058;8.688;2022-10-30T16:59:03;6.60;;;4.70;;
3747;SDS011;1889;50.058;8.688;2022-10-30T17:01:35;7.97;;;4.55;;
3747;SDS011;1889;50.058;8.688;2022-10-30T17:04:04;10.20;;;5.12;;
3747;SDS011;1889;50.058;8.688;2022-10-30T17:06:39;9.08;;;4.65;;
3747;SDS011;1889;50.058;8.688;2022-10-30T17:09:19;5.87;;;4.05;;
3747;SDS011;1889;50.058;8.688;2022-10-30T17:11:59;6.00;;;4.20;;
3747;SDS011;1889;50.058;8.688;2022-10-30T17:14:28;8.88;;;4.30;;
3747;SDS011;1889;50.058;8.688;2022-10-30T17:17:01;6.28;;;4.45;;
3747;SDS011;1889;50.058;8.688;2022-10-30T17:22:09;8.35;;;4.72;;
3747;SDS011;1889;50.058;8.688;2022-10-30T17:24:40;9.63;;;4.58;;
3747;SDS011;1889;50.058;8.688;2022-10-30T17:27:29;11.60;;;4.27;;
3747;SDS011;1889;50.058;8.688;2022-10-30T17:29:57;8.98;;;5.35;;
3747;SDS011;1889;50.058;8.688;2022-10-30T17:32:27;8.58;;;4.80;;
3747;SDS011;1889;50.058;8.688;2022-10-30T17:35:08;6.80;;;5.20;;
3747;SDS011;1889;50.058;8.688;2022-10-30T17:37:30;7.58;;;4.92;;